Time;durP1;ratioP1;P1;durP2;ratioP2;P2;SDS_P1;SDS_P2;PMS_P1;PMS_P2;Temp;Humidity;BMP_temperature;BMP_pressure;BME280_temperature;BME280_humidity;BME280_pressure;Samples;Min_cycle;Max_cycle;Signal;HPM_P1;HPM_P2
2023/11/28 00:02:27;;;;;;;26.57;12.97;;;1.60;99.90;;;;;;6242641;23;20403;-60
2023/11/28 00:04:56;;;;;;;18.87;9.40;;;1.60;99.90;;;;;;6242803;23;20439;-62
2023/11/28 00:07:22;;;;;;;16.33;10.03;;;1.60;99.90;;;;;;6242547;23;20404;-63
2023/11/28 00:09:49;;;;;;;28.37;11.20;;;1.60;99.90;;;;;;6242806;23;20400;-62
2023/11/28 00:12:16;;;;;;;18.67;9.83;;;1.60;99.90;;;;;;6242347;23;20455;-61
2023/11/28 00:14:45;;;;;;;21.63;11.20;;;1.60;99.90;;;;;;6242612;23;20415;-64
2023/11/28 00:17:12;;;;;;;16.63;9.03;;;1.60;99.90;;;;;;6243144;23;20434;-55
2023/11/28 00:19:39;;;;;;;19.70;9.83;;;1.60;99.90;;;;;;6243118;23;20438;-57
2023/11/28 00:22:14;;;;;;;20.77;10.53;;;1.60;99.90;;;;;;6243586;23;20461;-62
2023/11/28 00:24:40;;;;;;;15.97;8.50;;;1.60;99.90;;;;;;6243938;23;20387;-62
2023/11/28 00:27:08;;;;;;;23.97;10.60;;;1.60;99.90;;;;;;6244381;23;20499;-59
2023/11/28 00:29:35;;;;;;;21.00;9.57;;;1.60;99.90;;;;;;6244576;23;20398;-61
2023/11/28 00:32:03;;;;;;;23.03;10.50;;;1.60;99.90;;;;;;6244652;23;20384;-59
2023/11/28 00:34:32;;;;;;;22.03;10.67;;;1.70;99.90;;;;;;6244235;23;20428;-60
2023/11/28 00:36:59;;;;;;;14.37;8.10;;;1.70;99.90;;;;;;6245098;23;20411;-53
2023/11/28 00:39:27;;;;;;;23.23;9.87;;;1.70;99.90;;;;;;6244266;23;20435;-59
2023/11/28 00:41:54;;;;;;;17.10;8.90;;;1.70;99.90;;;;;;6244406;23;20388;-52
2023/11/28 00:44:24;;;;;;;17.70;10.10;;;1.60;99.90;;;;;;6244503;23;20404;-50
2023/11/28 00:46:51;;;;;;;14.80;8.47;;;1.70;99.90;;;;;;6244143;23;20411;-60
2023/11/28 00:49:18;;;;;;;21.63;8.83;;;1.70;99.90;;;;;;6243133;23;20384;-59
2023/11/28 00:51:45;;;;;;;13.43;9.07;;;1.60;99.90;;;;;;6243278;23;20400;-61
2023/11/28 00:54:12;;;;;;;18.30;9.10;;;1.60;99.90;;;;;;6242619;23;20415;-61
2023/11/28 00:56:40;;;;;;;14.70;7.50;;;1.60;99.90;;;;;;6242929;23;20380;-63
2023/11/28 00:59:07;;;;;;;11.87;7.40;;;1.60;99.90;;;;;;6242117;23;20439;-59
2023/11/28 01:01:33;;;;;;;11.97;8.60;;;1.60;99.90;;;;;;6242331;23;20431;-59
2023/11/28 01:04:01;;;;;;;15.23;8.87;;;1.60;99.90;;;;;;6242343;23;20404;-62
2023/11/28 01:06:31;;;;;;;16.83;9.67;;;1.60;99.90;;;;;;6242147;23;20476;-55
2023/11/28 01:08:58;;;;;;;16.93;10.07;;;1.60;99.90;;;;;;6242043;23;20424;-63
2023/11/28 01:11:25;;;;;;;15.60;8.67;;;1.60;99.90;;;;;;6241731;23;20388;-62
2023/11/28 01:13:54;;;;;;;14.60;7.17;;;1.60;99.90;;;;;;6242894;23;20438;-57
2023/11/28 01:16:20;;;;;;;17.47;9.80;;;1.60;99.90;;;;;;6242855;23;20503;-61
2023/11/28 01:18:47;;;;;;;15.70;9.47;;;1.50;99.90;;;;;;6243127;23;20440;-62
2023/11/28 01:21:14;;;;;;;13.27;8.70;;;1.60;99.90;;;;;;6242669;23;20411;-59
2023/11/28 01:23:44;;;;;;;16.13;8.73;;;1.60;99.90;;;;;;6242748;23;20464;-59
2023/11/28 01:26:11;;;;;;;12.17;8.30;;;1.50;99.90;;;;;;6243121;23;20440;-62
2023/11/28 01:28:38;;;;;;;18.00;10.30;;;1.50;99.90;;;;;;6242875;23;20400;-59
2023/11/28 01:31:06;;;;;;;16.00;10.77;;;1.60;99.90;;;;;;6242856;23;20451;-60
2023/11/28 01:33:33;;;;;;;16.30;9.73;;;1.60;99.90;;;;;;6242086;23;20400;-61
2023/11/28 01:36:04;;;;;;;13.00;8.50;;;1.50;99.90;;;;;;6242906;23;20412;-62
2023/11/28 01:38:32;;;;;;;16.90;8.40;;;1.50;99.90;;;;;;6242593;23;20503;-58
2023/11/28 01:41:00;;;;;;;15.50;8.97;;;1.50;99.90;;;;;;6242993;23;20404;-59
2023/11/28 01:43:29;;;;;;;22.20;10.23;;;1.50;99.90;;;;;;6242489;23;20404;-58
2023/11/28 01:45:56;;;;;;;15.33;8.70;;;1.40;99.90;;;;;;6242537;23;20427;-61
2023/11/28 01:48:25;;;;;;;17.73;10.60;;;1.40;99.90;;;;;;6242362;23;20404;-60
2023/11/28 01:50:55;;;;;;;16.80;10.77;;;1.40;99.90;;;;;;6242536;23;20400;-59
2023/11/28 01:53:22;;;;;;;20.63;10.40;;;1.50;99.90;;;;;;6243161;23;20384;-56
2023/11/28 01:55:49;;;;;;;15.83;10.87;;;1.50;99.90;;;;;;6242641;23;20392;-61
2023/11/28 01:58:16;;;;;;;15.27;9.83;;;1.50;99.90;;;;;;6243215;23;20479;-58
2023/11/28 02:00:45;;;;;;;14.13;9.00;;;1.50;99.90;;;;;;6243115;23;20396;-58
2023/11/28 02:03:14;;;;;;;16.10;10.20;;;1.50;99.90;;;;;;6243988;23;20403;-60
2023/11/28 02:05:42;;;;;;;17.83;10.67;;;1.40;99.90;;;;;;6243720;23;20388;-57
2023/11/28 02:08:10;;;;;;;23.23;9.70;;;1.40;99.90;;;;;;6244244;23;20389;-54
2023/11/28 02:10:39;;;;;;;25.77;9.97;;;1.40;99.90;;;;;;6243712;23;20459;-60
2023/11/28 02:13:07;;;;;;;16.83;9.10;;;1.30;99.90;;;;;;6243372;23;20416;-60
2023/11/28 02:15:41;;;;;;;13.30;8.27;;;1.30;99.90;;;;;;6242577;23;20387;-62
2023/11/28 02:18:10;;;;;;;13.23;7.67;;;1.30;99.90;;;;;;6241911;23;20391;-59
2023/11/28 02:20:37;;;;;;;17.70;8.80;;;1.30;99.90;;;;;;6242714;23;20415;-61
2023/11/28 02:23:05;;;;;;;13.77;8.93;;;1.30;99.90;;;;;;6242546;23;20408;-62
2023/11/28 02:25:38;;;;;;;18.20;9.80;;;1.30;99.90;;;;;;6242838;23;20459;-57
2023/11/28 02:28:17;;;;;;;15.40;8.17;;;1.30;99.90;;;;;;6243180;23;20431;-59
2023/11/28 02:30:47;;;;;;;15.17;8.47;;;1.30;99.90;;;;;;6242981;23;20388;-55
2023/11/28 02:33:14;;;;;;;12.27;7.53;;;1.30;99.90;;;;;;6243006;23;20384;-56
2023/11/28 02:35:40;;;;;;;21.90;7.40;;;1.30;99.90;;;;;;6242246;23;20439;-61
2023/11/28 02:38:07;;;;;;;11.43;7.50;;;1.40;99.90;;;;;;6242366;23;20412;-57
2023/11/28 02:40:35;;;;;;;13.50;8.00;;;1.30;99.90;;;;;;6242511;23;20447;-60
2023/11/28 02:43:02;;;;;;;18.50;7.97;;;1.30;99.90;;;;;;6242295;23;20412;-59
2023/11/28 02:45:30;;;;;;;13.90;8.00;;;1.30;99.90;;;;;;6242377;23;20411;-57
2023/11/28 02:47:57;;;;;;;14.00;8.00;;;1.30;99.90;;;;;;6242206;23;20404;-59
2023/11/28 02:50:24;;;;;;;19.13;9.40;;;1.30;99.90;;;;;;6242084;23;20388;-60
2023/11/28 02:52:51;;;;;;;17.57;7.87;;;1.30;99.90;;;;;;6242072;23;20399;-58
2023/11/28 02:55:18;;;;;;;15.77;7.67;;;1.30;99.90;;;;;;6242220;23;20384;-59
2023/11/28 02:57:47;;;;;;;13.83;7.00;;;1.30;99.90;;;;;;6242530;23;20423;-59
2023/11/28 03:00:14;;;;;;;13.97;8.10;;;1.30;99.90;;;;;;6242359;23;20416;-60
2023/11/28 03:02:42;;;;;;;19.70;9.10;;;1.20;99.90;;;;;;6242241;23;20404;-59
2023/11/28 03:05:09;;;;;;;16.83;8.20;;;1.20;99.90;;;;;;6242435;23;20375;-59
2023/11/28 03:07:36;;;;;;;11.93;7.40;;;1.20;99.90;;;;;;6242090;23;20412;-58
2023/11/28 03:10:04;;;;;;;14.67;8.50;;;1.30;99.90;;;;;;6241475;23;20423;-54
2023/11/28 03:12:31;;;;;;;10.60;6.70;;;1.30;99.90;;;;;;6242958;23;20384;-57
2023/11/28 03:14:58;;;;;;;9.93;6.87;;;1.20;99.90;;;;;;6242216;23;20404;-56
2023/11/28 03:17:24;;;;;;;11.53;6.50;;;1.20;99.90;;;;;;6242694;23;20424;-55
2023/11/28 03:19:53;;;;;;;16.13;6.27;;;1.10;99.90;;;;;;6241927;23;20450;-56
2023/11/28 03:22:19;;;;;;;9.37;4.87;;;1.10;99.90;;;;;;6241920;23;20456;-60
2023/11/28 03:24:48;;;;;;;8.97;5.40;;;1.00;99.90;;;;;;6242406;23;20411;-57
2023/11/28 03:27:17;;;;;;;14.00;7.00;;;1.00;99.90;;;;;;6241898;23;20408;-60
2023/11/28 03:29:44;;;;;;;10.60;5.13;;;1.00;99.90;;;;;;6241970;23;20448;-62
2023/11/28 03:32:11;;;;;;;11.53;5.60;;;1.10;99.90;;;;;;6242112;23;20408;-59
2023/11/28 03:34:39;;;;;;;8.47;4.80;;;1.10;99.90;;;;;;6241901;23;20392;-61
2023/11/28 03:37:08;;;;;;;6.17;4.40;;;1.10;99.90;;;;;;6241300;23;20440;-58
2023/11/28 03:39:35;;;;;;;11.50;5.73;;;1.10;99.90;;;;;;6242079;23;20431;-58
2023/11/28 03:42:02;;;;;;;8.77;4.93;;;1.10;99.90;;;;;;6241896;23;20399;-61
2023/11/28 03:44:29;;;;;;;11.87;6.23;;;1.00;99.90;;;;;;6241314;23;20459;-61
2023/11/28 03:46:56;;;;;;;9.30;5.83;;;1.00;99.90;;;;;;6242561;23;20391;-60
2023/11/28 03:49:23;;;;;;;9.60;5.83;;;1.10;99.90;;;;;;6242115;23;20385;-61
2023/11/28 03:51:52;;;;;;;9.80;5.23;;;1.10;99.90;;;;;;6241741;23;20407;-62
2023/11/28 03:54:20;;;;;;;13.37;5.70;;;1.10;99.90;;;;;;6241572;23;20388;-61
2023/11/28 03:56:47;;;;;;;8.00;5.20;;;1.10;99.90;;;;;;6241244;23;20482;-61
2023/11/28 03:59:14;;;;;;;10.37;5.90;;;1.10;99.90;;;;;;6241760;23;20439;-61
2023/11/28 04:01:41;;;;;;;6.20;4.80;;;1.10;99.90;;;;;;6241644;23;20438;-60
2023/11/28 04:04:08;;;;;;;7.57;4.40;;;1.10;99.90;;;;;;6241597;23;20431;-58
2023/11/28 04:06:41;;;;;;;6.47;4.53;;;1.10;99.90;;;;;;6241525;23;20407;-62
2023/11/28 04:09:07;;;;;;;15.20;5.87;;;1.10;99.90;;;;;;6241740;23;20407;-58
2023/11/28 04:11:37;;;;;;;10.03;5.33;;;1.10;99.90;;;;;;6241505;23;20870;-61
2023/11/28 04:14:05;;;;;;;13.40;6.10;;;1.10;99.90;;;;;;6241921;23;20396;-60
2023/11/28 04:16:32;;;;;;;8.10;4.53;;;1.10;99.90;;;;;;6241712;23;20384;-59
2023/11/28 04:18:58;;;;;;;9.03;3.60;;;1.10;99.90;;;;;;6241784;23;20446;-59
2023/11/28 04:21:26;;;;;;;6.10;4.37;;;1.10;99.90;;;;;;6241930;23;20404;-54
2023/11/28 04:23:52;;;;;;;5.00;3.33;;;1.00;99.90;;;;;;6242946;23;20462;-58
2023/11/28 04:26:19;;;;;;;10.43;5.53;;;1.00;99.90;;;;;;6244082;23;20404;-60
2023/11/28 04:28:48;;;;;;;7.30;4.17;;;0.90;99.90;;;;;;6244041;23;20404;-60
2023/11/28 04:31:18;;;;;;;9.77;4.10;;;0.90;99.90;;;;;;6243583;23;20466;-61
2023/11/28 04:33:45;;;;;;;6.77;5.40;;;1.00;99.90;;;;;;6243924;23;20410;-57
2023/11/28 04:36:13;;;;;;;8.30;4.97;;;1.00;99.90;;;;;;6243443;23;20419;-59
2023/11/28 04:38:40;;;;;;;7.73;4.30;;;1.00;99.90;;;;;;6244087;23;20423;-53
2023/11/28 04:41:08;;;;;;;7.73;4.27;;;1.00;99.90;;;;;;6244065;23;20438;-59
2023/11/28 04:43:36;;;;;;;8.80;4.37;;;1.00;99.90;;;;;;6244809;23;20443;-58
2023/11/28 04:46:05;;;;;;;11.77;4.30;;;1.00;99.90;;;;;;6245166;23;20460;-52
2023/11/28 04:48:32;;;;;;;13.67;6.47;;;1.00;99.90;;;;;;6245239;23;20389;-58
2023/11/28 04:50:59;;;;;;;3.97;2.97;;;1.10;99.90;;;;;;6244917;23;20435;-57
2023/11/28 04:53:26;;;;;;;9.43;5.10;;;1.10;99.90;;;;;;6245097;23;20404;-55
2023/11/28 04:55:53;;;;;;;9.17;2.97;;;1.00;99.90;;;;;;6244896;23;20408;-59
2023/11/28 04:58:20;;;;;;;8.77;3.70;;;1.00;99.90;;;;;;6244683;23;20387;-58
2023/11/28 05:00:47;;;;;;;6.30;3.60;;;1.00;99.90;;;;;;6243603;23;20416;-59
2023/11/28 05:03:16;;;;;;;7.63;2.90;;;1.00;99.90;;;;;;6243959;23;20434;-54
2023/11/28 05:05:43;;;;;;;5.57;3.27;;;1.10;99.90;;;;;;6243614;23;20404;-61
2023/11/28 05:08:10;;;;;;;6.27;3.40;;;1.10;99.90;;;;;;6243075;23;20428;-60
2023/11/28 05:10:37;;;;;;;7.70;3.80;;;1.10;99.90;;;;;;6243348;23;20411;-58
2023/11/28 05:13:04;;;;;;;9.33;3.67;;;1.10;99.90;;;;;;6242965;23;20403;-61
2023/11/28 05:15:31;;;;;;;6.87;4.27;;;1.10;99.90;;;;;;6243275;23;20400;-60
2023/11/28 05:17:58;;;;;;;9.93;4.10;;;1.10;99.90;;;;;;6242897;23;20407;-62
2023/11/28 05:20:26;;;;;;;5.60;2.53;;;1.10;99.90;;;;;;6243006;23;20432;-60
2023/11/28 05:22:55;;;;;;;8.77;3.20;;;1.10;99.90;;;;;;6243147;23;20404;-61
2023/11/28 05:25:22;;;;;;;6.30;5.13;;;1.10;99.90;;;;;;6243430;23;20416;-60
2023/11/28 05:27:49;;;;;;;6.77;3.80;;;1.10;99.90;;;;;;6243229;23;20428;-62
2023/11/28 05:30:16;;;;;;;8.73;4.40;;;1.10;99.90;;;;;;6243457;23;20411;-59
2023/11/28 05:32:43;;;;;;;8.23;3.97;;;1.00;99.90;;;;;;6243153;23;20435;-62
2023/11/28 05:35:10;;;;;;;6.60;2.90;;;1.00;99.90;;;;;;6242530;23;20396;-61
2023/11/28 05:37:42;;;;;;;5.57;3.00;;;1.00;99.90;;;;;;6243025;23;20404;-59
2023/11/28 05:40:11;;;;;;;5.50;3.23;;;1.20;99.90;;;;;;6243188;23;20439;-60
2023/11/28 05:42:38;;;;;;;9.43;3.70;;;1.10;99.90;;;;;;6243226;23;20392;-61
2023/11/28 05:45:06;;;;;;;6.97;3.47;;;1.10;99.90;;;;;;6242946;23;20412;-59
2023/11/28 05:47:36;;;;;;;4.47;2.57;;;1.10;99.90;;;;;;6243305;23;20392;-58
2023/11/28 05:50:03;;;;;;;6.07;4.33;;;1.00;99.90;;;;;;6243341;23;20470;-60
2023/11/28 05:52:30;;;;;;;9.43;4.33;;;1.00;99.90;;;;;;6243091;23;20428;-61
2023/11/28 05:54:58;;;;;;;8.20;2.87;;;1.00;99.90;;;;;;6242818;23;20397;-61
2023/11/28 05:57:28;;;;;;;5.70;3.10;;;0.90;99.90;;;;;;6242534;23;20431;-58
2023/11/28 05:59:57;;;;;;;9.67;5.30;;;1.00;99.90;;;;;;6242869;23;20435;-61
2023/11/28 06:02:24;;;;;;;5.97;3.67;;;0.90;99.90;;;;;;6242407;23;20464;-61
2023/11/28 06:04:51;;;;;;;9.00;4.20;;;0.90;99.90;;;;;;6242458;23;20404;-61
2023/11/28 06:07:18;;;;;;;7.73;3.60;;;0.90;99.90;;;;;;6242795;23;20388;-59
2023/11/28 06:09:46;;;;;;;9.57;4.00;;;0.90;99.90;;;;;;6243155;23;20428;-60
2023/11/28 06:12:15;;;;;;;7.63;3.83;;;0.90;99.90;;;;;;6242939;23;20411;-59
2023/11/28 06:14:43;;;;;;;11.03;5.73;;;0.90;99.90;;;;;;6243003;23;20513;-55
2023/11/28 06:17:13;;;;;;;8.43;4.33;;;1.00;99.90;;;;;;6243360;23;20384;-58
2023/11/28 06:19:41;;;;;;;10.67;6.53;;;1.00;99.90;;;;;;6243434;23;20418;-58
2023/11/28 06:22:07;;;;;;;6.03;3.53;;;1.00;99.90;;;;;;6243842;23;20395;-54
2023/11/28 06:24:37;;;;;;;10.47;4.50;;;1.00;99.90;;;;;;6243523;23;20400;-56
2023/11/28 06:27:04;;;;;;;4.87;2.70;;;1.00;99.90;;;;;;6243566;23;20524;-59
2023/11/28 06:29:32;;;;;;;12.33;5.37;;;1.00;99.90;;;;;;6243451;23;20392;-63
2023/11/28 06:31:59;;;;;;;9.60;4.57;;;1.10;99.90;;;;;;6243683;23;20483;-57
2023/11/28 06:34:26;;;;;;;10.63;6.00;;;1.10;99.90;;;;;;6244083;23;20388;-59
2023/11/28 06:36:53;;;;;;;14.53;4.37;;;1.10;99.90;;;;;;6243978;23;20436;-55
2023/11/28 06:39:23;;;;;;;11.67;4.90;;;1.10;99.90;;;;;;6244163;23;20380;-57
2023/11/28 06:41:50;;;;;;;5.73;3.60;;;1.20;99.90;;;;;;6243589;23;20447;-60
2023/11/28 06:44:18;;;;;;;11.30;5.47;;;1.20;99.90;;;;;;6243220;23;20416;-59
2023/11/28 06:46:47;;;;;;;12.93;6.70;;;1.10;99.90;;;;;;6243774;23;20499;-58
2023/11/28 06:49:14;;;;;;;10.93;4.90;;;1.10;99.90;;;;;;6243784;23;20435;-59
2023/11/28 06:51:41;;;;;;;10.80;5.97;;;1.20;99.90;;;;;;6243642;23;20397;-58
2023/11/28 06:54:09;;;;;;;7.20;4.10;;;1.20;99.90;;;;;;6243709;23;20432;-56
2023/11/28 06:56:38;;;;;;;13.03;6.40;;;1.30;99.90;;;;;;6243606;23;20396;-54
2023/11/28 06:59:05;;;;;;;12.40;6.80;;;1.30;99.90;;;;;;6242794;23;20388;-61
2023/11/28 07:01:35;;;;;;;11.17;5.93;;;1.30;99.90;;;;;;6243729;23;20430;-60
2023/11/28 07:04:03;;;;;;;6.03;3.10;;;1.30;99.90;;;;;;6243215;23;20400;-57
2023/11/28 07:06:32;;;;;;;15.33;6.50;;;1.40;99.90;;;;;;6242930;23;20420;-58
2023/11/28 07:08:58;;;;;;;7.70;4.23;;;1.40;99.90;;;;;;6242674;23;20399;-59
2023/11/28 07:11:29;;;;;;;8.63;5.33;;;1.40;99.90;;;;;;6243524;23;20423;-60
2023/11/28 07:13:57;;;;;;;11.00;6.23;;;1.30;99.90;;;;;;6243784;23;20440;-60
2023/11/28 07:16:24;;;;;;;11.03;6.93;;;1.30;99.90;;;;;;6243368;23;20452;-62
2023/11/28 07:18:50;;;;;;;12.93;6.70;;;1.30;99.90;;;;;;6243247;23;20380;-57
2023/11/28 07:21:19;;;;;;;17.90;7.90;;;1.30;99.90;;;;;;6243869;23;20436;-58
2023/11/28 07:23:46;;;;;;;13.63;7.80;;;1.20;99.90;;;;;;6243295;23;20476;-61
2023/11/28 07:26:14;;;;;;;18.83;8.53;;;1.20;99.90;;;;;;6243109;23;20400;-59
2023/11/28 07:28:41;;;;;;;13.07;7.10;;;1.20;99.90;;;;;;6242582;23;20416;-61
2023/11/28 07:31:08;;;;;;;10.00;5.90;;;1.20;99.90;;;;;;6242359;23;20419;-56
2023/11/28 07:33:35;;;;;;;13.90;7.87;;;1.20;99.90;;;;;;6242345;23;20418;-62
2023/11/28 07:36:04;;;;;;;12.40;7.57;;;1.20;99.90;;;;;;6242668;23;20399;-61
2023/11/28 07:38:32;;;;;;;15.60;8.27;;;1.20;99.90;;;;;;6243070;23;20449;-58
2023/11/28 07:41:00;;;;;;;9.30;6.10;;;1.30;99.90;;;;;;6243074;23;20430;-59
2023/11/28 07:43:27;;;;;;;14.70;9.30;;;1.30;99.90;;;;;;6242613;23;20418;-61
2023/11/28 07:45:54;;;;;;;20.17;10.03;;;1.20;99.90;;;;;;6242401;23;20411;-59
2023/11/28 07:48:23;;;;;;;13.03;6.87;;;1.20;99.90;;;;;;6242677;23;20408;-59
2023/11/28 07:50:50;;;;;;;15.30;7.00;;;1.30;99.90;;;;;;6242680;23;20432;-60
2023/11/28 07:53:18;;;;;;;15.47;7.90;;;1.20;99.90;;;;;;6242528;23;20405;-59
2023/11/28 07:55:47;;;;;;;19.47;9.97;;;1.20;99.90;;;;;;6242585;23;20415;-55
2023/11/28 07:58:14;;;;;;;15.47;9.70;;;1.40;99.90;;;;;;6243110;23;20399;-57
2023/11/28 08:00:40;;;;;;;22.90;10.37;;;1.20;99.90;;;;;;6244416;23;20459;-61
2023/11/28 08:03:10;;;;;;;23.10;11.73;;;1.30;99.90;;;;;;6244298;23;20495;-62
2023/11/28 08:05:39;;;;;;;29.37;12.67;;;1.30;99.90;;;;;;6244351;23;20381;-61
2023/11/28 08:08:06;;;;;;;19.37;9.37;;;1.30;99.90;;;;;;6244642;23;20416;-59
2023/11/28 08:10:33;;;;;;;27.43;8.83;;;1.40;99.90;;;;;;6244809;23;20422;-58
2023/11/28 08:13:01;;;;;;;22.73;9.73;;;1.40;99.90;;;;;;6244234;23;20428;-61
2023/11/28 08:15:28;;;;;;;21.60;12.03;;;1.50;99.90;;;;;;6244509;23;20384;-61
2023/11/28 08:17:55;;;;;;;18.43;9.13;;;1.60;99.90;;;;;;6244545;23;20415;-62
2023/11/28 08:20:23;;;;;;;26.60;11.97;;;1.60;99.90;;;;;;6244308;23;20435;-62
2023/11/28 08:22:49;;;;;;;15.93;8.70;;;1.60;99.90;;;;;;6244233;23;20391;-61
2023/11/28 08:25:16;;;;;;;17.33;8.07;;;1.60;99.90;;;;;;6244508;23;20383;-61
2023/11/28 08:27:43;;;;;;;22.07;10.43;;;1.60;99.90;;;;;;6244116;23;20396;-60
2023/11/28 08:30:13;;;;;;;19.47;8.07;;;1.50;99.90;;;;;;6244091;23;20395;-60
2023/11/28 08:32:40;;;;;;;19.70;9.70;;;1.60;99.90;;;;;;6244420;23;20396;-60
2023/11/28 08:35:08;;;;;;;17.80;10.73;;;1.60;99.90;;;;;;6243771;23;20391;-61
2023/11/28 08:37:35;;;;;;;15.83;9.77;;;1.60;99.90;;;;;;6243372;23;20416;-60
2023/11/28 08:40:03;;;;;;;19.50;9.67;;;1.70;99.90;;;;;;6243877;23;20415;-59
2023/11/28 08:42:30;;;;;;;22.63;9.57;;;1.70;99.90;;;;;;6243836;23;20399;-62
2023/11/28 08:44:56;;;;;;;22.50;10.70;;;1.60;99.90;;;;;;6244076;23;20439;-62
2023/11/28 08:47:25;;;;;;;19.47;9.57;;;1.60;99.90;;;;;;6244532;23;20384;-59
2023/11/28 08:49:52;;;;;;;18.80;10.83;;;1.60;99.90;;;;;;6244991;23;20439;-61
2023/11/28 08:52:20;;;;;;;17.07;8.90;;;1.50;99.90;;;;;;6245537;23;20430;-58
2023/11/28 08:54:47;;;;;;;14.30;7.43;;;1.60;99.90;;;;;;6245334;23;20491;-58
2023/11/28 08:57:14;;;;;;;21.50;10.53;;;1.60;99.90;;;;;;6245366;23;20392;-59
2023/11/28 08:59:41;;;;;;;25.13;11.13;;;1.50;99.90;;;;;;6244389;23;20442;-60
2023/11/28 09:02:08;;;;;;;16.47;9.47;;;1.60;99.90;;;;;;6244689;23;20440;-62
2023/11/28 09:04:36;;;;;;;26.53;10.40;;;1.60;99.90;;;;;;6243670;23;20416;-61
2023/11/28 09:07:03;;;;;;;20.30;8.80;;;1.60;99.90;;;;;;6243802;23;20399;-59
2023/11/28 09:09:30;;;;;;;15.83;8.27;;;1.70;99.90;;;;;;6242898;23;20436;-57
2023/11/28 09:11:58;;;;;;;19.53;10.07;;;1.80;99.90;;;;;;6243009;23;20404;-56
2023/11/28 09:14:25;;;;;;;19.70;10.87;;;1.90;99.90;;;;;;6243443;23;20489;-60
2023/11/28 09:16:53;;;;;;;15.67;7.43;;;1.90;99.90;;;;;;6243648;23;20408;-59
2023/11/28 09:19:20;;;;;;;13.60;6.90;;;1.90;99.90;;;;;;6243628;23;20898;-59
2023/11/28 09:24:31;;;;;;;17.53;9.60;;;1.80;99.90;;;;;;6241731;23;20428;-62
2023/11/28 09:26:59;;;;;;;24.13;8.97;;;1.70;99.90;;;;;;6241819;23;20404;-57
2023/11/28 09:29:26;;;;;;;22.03;9.20;;;1.80;99.90;;;;;;6241789;23;20400;-62
2023/11/28 09:31:54;;;;;;;22.23;8.63;;;1.80;99.90;;;;;;6242662;23;20411;-61
2023/11/28 09:34:22;;;;;;;16.10;9.90;;;1.80;99.90;;;;;;6242041;23;20411;-59
2023/11/28 09:36:49;;;;;;;18.40;9.30;;;1.80;99.90;;;;;;6242214;23;20448;-62
2023/11/28 09:39:16;;;;;;;25.43;13.13;;;1.90;99.90;;;;;;6241588;23;20476;-59
2023/11/28 09:41:45;;;;;;;20.23;9.13;;;1.80;99.90;;;;;;6242003;23;20424;-61
2023/11/28 09:44:16;;;;;;;19.30;8.30;;;1.80;99.90;;;;;;6241336;23;20388;-62
2023/11/28 09:46:48;;;;;;;9.93;6.97;;;1.80;99.90;;;;;;6241213;23;20464;-61
2023/11/28 09:49:18;;;;;;;14.30;8.30;;;1.80;99.90;;;;;;6240949;23;20380;-62
2023/11/28 09:51:46;;;;;;;15.80;8.60;;;1.80;99.90;;;;;;6240835;23;20407;-60
2023/11/28 09:54:16;;;;;;;16.23;7.73;;;1.80;99.90;;;;;;6240956;23;20408;-62
2023/11/28 09:56:45;;;;;;;20.93;9.23;;;1.90;99.90;;;;;;6240031;23;20432;-61
2023/11/28 09:59:14;;;;;;;22.07;8.80;;;2.00;99.90;;;;;;6240122;23;20400;-60
2023/11/28 10:01:46;;;;;;;10.83;6.97;;;2.00;99.90;;;;;;6238261;23;20511;-62
2023/11/28 10:04:13;;;;;;;13.03;6.03;;;2.00;99.90;;;;;;6239262;23;20415;-61
2023/11/28 10:06:43;;;;;;;17.03;8.43;;;2.10;99.90;;;;;;6239900;23;20428;-62
2023/11/28 10:09:12;;;;;;;13.50;8.27;;;2.10;99.90;;;;;;6240741;23;20412;-59
2023/11/28 10:11:40;;;;;;;11.73;7.47;;;2.10;99.90;;;;;;6240978;23;20428;-61
2023/11/28 10:14:09;;;;;;;16.27;8.13;;;2.10;99.90;;;;;;6240263;23;20418;-62
2023/11/28 10:16:43;;;;;;;13.20;7.37;;;2.20;99.90;;;;;;6240008;23;20396;-62
2023/11/28 10:19:10;;;;;;;10.07;6.10;;;2.20;99.90;;;;;;6240352;23;20457;-63
2023/11/28 10:21:38;;;;;;;10.83;6.70;;;2.20;99.90;;;;;;6239543;23;20520;-60
2023/11/28 10:24:07;;;;;;;14.53;7.50;;;2.20;99.90;;;;;;6240793;23;20430;-59
2023/11/28 10:26:34;;;;;;;21.53;8.10;;;2.10;99.90;;;;;;6240887;23;20407;-62
2023/11/28 10:29:06;;;;;;;18.17;7.57;;;2.20;99.90;;;;;;6240170;23;20428;-58
2023/11/28 10:31:39;;;;;;;12.43;7.33;;;2.10;99.90;;;;;;6240369;23;20448;-60
2023/11/28 10:34:08;;;;;;;13.53;6.87;;;2.20;99.90;;;;;;6239594;23;20427;-61
2023/11/28 10:36:40;;;;;;;11.67;6.87;;;2.20;99.90;;;;;;6239822;23;20866;-57
2023/11/28 10:39:08;;;;;;;12.13;7.03;;;2.20;99.90;;;;;;6239889;23;20418;-59
2023/11/28 10:41:35;;;;;;;13.93;7.57;;;2.30;99.90;;;;;;6239196;23;20424;-62
2023/11/28 10:44:03;;;;;;;12.10;6.40;;;2.30;99.90;;;;;;6239921;23;20415;-60
2023/11/28 10:46:32;;;;;;;13.27;7.20;;;2.20;99.90;;;;;;6239832;23;20419;-60
2023/11/28 10:49:05;;;;;;;18.17;6.73;;;2.20;99.90;;;;;;6240843;23;20427;-61
2023/11/28 10:51:32;;;;;;;11.03;7.23;;;2.20;99.90;;;;;;6240715;23;20419;-60
2023/11/28 10:54:05;;;;;;;11.50;6.77;;;2.20;99.90;;;;;;6241241;23;20392;-59
2023/11/28 10:56:45;;;;;;;16.20;7.63;;;2.20;99.90;;;;;;6241344;23;20435;-61
2023/11/28 10:59:17;;;;;;;9.90;6.57;;;2.30;99.90;;;;;;6241994;23;20385;-61
2023/11/28 11:01:46;;;;;;;15.30;7.63;;;2.30;99.90;;;;;;6241648;23;20474;-55
2023/11/28 11:04:14;;;;;;;10.57;7.10;;;2.30;99.90;;;;;;6241361;23;20388;-62
2023/11/28 11:06:41;;;;;;;14.80;7.10;;;2.30;99.90;;;;;;6240941;23;20413;-61
2023/11/28 11:09:11;;;;;;;14.73;7.30;;;2.30;99.90;;;;;;6241143;23;20431;-61
2023/11/28 11:11:39;;;;;;;13.60;7.70;;;2.20;99.90;;;;;;6241220;23;20411;-61
2023/11/28 11:14:19;;;;;;;14.23;8.10;;;2.30;99.90;;;;;;6240449;23;20424;-61
2023/11/28 11:16:54;;;;;;;10.67;5.70;;;2.20;99.90;;;;;;6241384;23;20389;-61
2023/11/28 11:19:24;;;;;;;15.97;9.07;;;2.20;99.90;;;;;;6240124;23;20435;-59
2023/11/28 11:21:59;;;;;;;14.00;7.27;;;2.20;99.90;;;;;;6240942;23;20434;-59
2023/11/28 11:24:26;;;;;;;18.20;8.77;;;2.20;99.90;;;;;;6241012;23;20429;-62
2023/11/28 11:26:54;;;;;;;12.20;7.53;;;2.20;99.90;;;;;;6242406;23;20412;-65
2023/11/28 11:29:38;;;;;;;8.67;6.30;;;2.20;99.90;;;;;;6242704;23;20392;-59
2023/11/28 11:32:08;;;;;;;7.40;5.37;;;2.20;99.90;;;;;;6242040;23;20435;-59
2023/11/28 11:34:40;;;;;;;17.67;9.83;;;2.10;99.90;;;;;;6241180;23;20392;-59
2023/11/28 11:37:13;;;;;;;10.50;6.20;;;2.10;99.90;;;;;;6241093;23;20391;-62
2023/11/28 11:39:46;;;;;;;12.27;6.13;;;2.20;99.90;;;;;;6240306;23;20391;-59
2023/11/28 11:42:14;;;;;;;10.47;5.60;;;2.20;99.90;;;;;;6239748;23;20448;-62
2023/11/28 11:44:46;;;;;;;13.23;6.43;;;2.20;99.90;;;;;;6240365;23;20422;-58
2023/11/28 11:47:16;;;;;;;14.90;5.90;;;2.10;99.90;;;;;;6239642;23;20432;-63
2023/11/28 11:49:45;;;;;;;10.07;5.73;;;2.10;99.90;;;;;;6239956;23;20404;-60
2023/11/28 11:52:14;;;;;;;10.77;5.50;;;2.00;99.90;;;;;;6239004;23;20448;-64
2023/11/28 11:54:41;;;;;;;12.10;6.23;;;2.00;99.90;;;;;;6240514;23;20459;-62
2023/11/28 11:57:09;;;;;;;16.50;7.40;;;2.00;99.90;;;;;;6240190;23;20412;-64
2023/11/28 11:59:36;;;;;;;12.00;6.90;;;2.00;99.90;;;;;;6240059;23;20400;-61
2023/11/28 12:02:04;;;;;;;10.30;6.10;;;2.00;99.90;;;;;;6239914;23;20451;-63
2023/11/28 12:04:34;;;;;;;11.10;5.87;;;2.00;99.90;;;;;;6240066;23;20407;-63
2023/11/28 12:07:07;;;;;;;14.17;7.40;;;2.00;99.90;;;;;;6240125;23;20439;-61
2023/11/28 12:09:34;;;;;;;11.63;6.73;;;2.00;99.90;;;;;;6238819;23;20384;-56
2023/11/28 12:12:04;;;;;;;12.33;6.57;;;2.00;99.90;;;;;;6238138;23;20435;-60
2023/11/28 12:14:33;;;;;;;11.87;7.33;;;2.00;99.90;;;;;;6239050;23;20404;-62
2023/11/28 12:17:00;;;;;;;9.10;5.87;;;2.00;99.90;;;;;;6239132;23;20709;-57
2023/11/28 12:19:29;;;;;;;11.50;6.43;;;2.00;99.90;;;;;;6238899;23;20376;-58
2023/11/28 12:21:58;;;;;;;10.27;5.70;;;2.00;99.90;;;;;;6239441;23;20459;-61
2023/11/28 12:24:28;;;;;;;12.73;6.70;;;1.90;99.90;;;;;;6239056;23;20507;-62
2023/11/28 12:26:57;;;;;;;13.70;6.53;;;1.90;99.90;;;;;;6240091;23;20379;-59
2023/11/28 12:29:25;;;;;;;12.77;6.47;;;1.90;99.90;;;;;;6239677;23;20411;-62
2023/11/28 12:31:53;;;;;;;12.23;6.23;;;1.90;99.90;;;;;;6240400;23;20404;-61
2023/11/28 12:34:22;;;;;;;13.07;7.20;;;1.80;99.90;;;;;;6239824;23;20488;-61
2023/11/28 12:36:49;;;;;;;10.70;5.60;;;1.70;99.90;;;;;;6240342;23;20400;-60
2023/11/28 12:39:25;;;;;;;12.10;5.83;;;1.70;99.90;;;;;;6240308;23;20396;-61
2023/11/28 12:41:56;;;;;;;12.90;5.77;;;1.60;99.90;;;;;;6239941;23;20428;-60
2023/11/28 12:44:25;;;;;;;12.87;6.93;;;1.60;99.90;;;;;;6241481;23;20372;-59
2023/11/28 12:46:54;;;;;;;11.97;5.50;;;1.50;99.90;;;;;;6241699;23;20400;-61
2023/11/28 12:49:23;;;;;;;12.33;6.40;;;1.50;99.90;;;;;;6242634;23;20431;-58
2023/11/28 12:51:50;;;;;;;8.47;6.13;;;1.60;99.90;;;;;;6242346;23;20419;-62
2023/11/28 12:54:18;;;;;;;14.00;7.13;;;1.60;99.90;;;;;;6241980;23;20430;-61
2023/11/28 12:56:50;;;;;;;7.87;5.33;;;1.60;99.90;;;;;;6241669;23;20432;-61